Time;durP1;ratioP1;P1;durP2;ratioP2;P2;SDS_P1;SDS_P2;PMS_P1;PMS_P2;Temp;Humidity;BMP_temperature;BMP_pressure;BME280_temperature;BME280_humidity;BME280_pressure;Samples;Min_cycle;Max_cycle;Signal;HPM_P1;HPM_P2
2021/05/28 00:01:47;;;;;;;9.85;4.55;;;16.50;72.00;;;;;;5069727;28;20039;-62
2021/05/28 00:04:13;;;;;;;8.20;4.22;;;16.50;72.80;;;;;;5066369;28;20048;-61
2021/05/28 00:06:38;;;;;;;7.13;3.88;;;16.40;72.10;;;;;;5076771;28;20513;-61
2021/05/28 00:09:05;;;;;;;8.50;4.70;;;16.40;72.20;;;;;;5056323;28;20087;-62
2021/05/28 00:11:30;;;;;;;8.25;3.95;;;16.40;72.30;;;;;;5059480;28;20032;-62
2021/05/28 00:13:56;;;;;;;9.98;4.20;;;16.40;72.30;;;;;;5073230;28;20490;-61
2021/05/28 00:16:21;;;;;;;6.30;4.00;;;16.30;72.30;;;;;;5058700;28;20973;-61
2021/05/28 00:18:47;;;;;;;5.78;4.15;;;16.30;72.40;;;;;;5059220;28;20035;-61
2021/05/28 00:21:12;;;;;;;9.27;4.10;;;16.20;72.50;;;;;;5073568;28;20122;-61
2021/05/28 00:23:38;;;;;;;6.53;3.88;;;16.20;72.60;;;;;;5069663;28;20048;-61
2021/05/28 00:26:03;;;;;;;6.90;3.80;;;16.20;72.50;;;;;;5073085;28;20061;-61
2021/05/28 00:28:29;;;;;;;8.95;3.70;;;16.10;72.50;;;;;;5074578;28;20461;-61
2021/05/28 00:30:54;;;;;;;9.20;3.55;;;16.10;72.60;;;;;;5073113;28;20032;-62
2021/05/28 00:33:20;;;;;;;5.50;3.90;;;16.10;72.70;;;;;;5067075;28;20036;-61
2021/05/28 00:35:45;;;;;;;5.95;3.58;;;16.10;72.80;;;;;;5073437;28;20040;-61
2021/05/28 00:38:11;;;;;;;6.90;3.90;;;16.10;72.80;;;;;;5068323;28;20425;-61
2021/05/28 00:40:36;;;;;;;7.93;4.22;;;16.00;72.80;;;;;;5074648;28;20028;-61
2021/05/28 00:43:02;;;;;;;9.48;3.67;;;16.00;72.90;;;;;;5051996;28;20024;-61
2021/05/28 00:45:28;;;;;;;5.22;3.70;;;16.00;73.00;;;;;;5053231;28;20040;-62
2021/05/28 00:47:53;;;;;;;6.38;3.80;;;15.90;73.00;;;;;;5050255;28;20108;-61
2021/05/28 00:50:19;;;;;;;6.78;3.70;;;15.90;73.10;;;;;;5049819;28;20028;-62
2021/05/28 00:52:46;;;;;;;5.78;3.60;;;15.80;73.00;;;;;;5067288;28;20088;-60
2021/05/28 00:55:12;;;;;;;3.95;2.88;;;15.80;73.10;;;;;;5065330;28;20430;-60
2021/05/28 00:57:37;;;;;;;5.43;3.55;;;15.80;73.20;;;;;;5070805;28;20036;-61
2021/05/28 01:00:07;;;;;;;5.18;3.97;;;15.70;73.10;;;;;;5037282;28;20040;-62
2021/05/28 01:02:32;;;;;;;11.07;4.72;;;15.70;73.20;;;;;;5066773;28;20033;-61
2021/05/28 01:04:58;;;;;;;9.15;4.50;;;15.70;73.30;;;;;;5064700;28;20082;-61
2021/05/28 01:07:24;;;;;;;12.70;4.88;;;15.60;73.30;;;;;;5050596;28;20492;-61
2021/05/28 01:09:49;;;;;;;8.20;4.15;;;15.60;73.40;;;;;;5053408;28;20404;-61
2021/05/28 01:12:15;;;;;;;9.23;4.80;;;15.60;73.40;;;;;;5065750;28;20472;-61
2021/05/28 01:14:40;;;;;;;9.32;4.20;;;15.60;73.50;;;;;;5070169;28;20036;-61
2021/05/28 01:17:06;;;;;;;6.55;4.00;;;15.60;73.60;;;;;;5072492;28;20032;-61
2021/05/28 01:19:31;;;;;;;6.68;4.60;;;15.50;73.50;;;;;;5068574;28;20051;-61
2021/05/28 01:22:03;;;;;;;6.50;4.00;;;15.50;73.60;;;;;;5076291;28;20522;-61
2021/05/28 01:24:29;;;;;;;5.60;4.10;;;15.50;73.60;;;;;;5077373;28;20503;-61
2021/05/28 01:26:54;;;;;;;6.78;3.78;;;15.50;73.70;;;;;;5076975;28;20035;-61
2021/05/28 01:29:20;;;;;;;11.57;3.90;;;15.40;73.70;;;;;;5069394;28;20064;-61
2021/05/28 01:31:45;;;;;;;10.68;4.15;;;15.40;73.80;;;;;;5072647;28;20060;-60
2021/05/28 01:34:11;;;;;;;8.35;4.00;;;15.40;73.90;;;;;;5064875;28;20501;-62
2021/05/28 01:36:36;;;;;;;10.25;3.72;;;15.30;74.00;;;;;;5073806;28;20036;-61
2021/05/28 01:39:02;;;;;;;6.45;3.75;;;15.30;74.20;;;;;;5067932;28;20464;-61
2021/05/28 01:41:29;;;;;;;11.15;3.90;;;15.30;74.10;;;;;;5055060;28;20024;-62
2021/05/28 01:43:55;;;;;;;13.68;5.40;;;15.30;74.20;;;;;;5047568;28;20059;-61
2021/05/28 01:46:21;;;;;;;10.35;4.78;;;15.30;74.20;;;;;;5057125;28;20464;-61
2021/05/28 01:48:46;;;;;;;8.88;4.22;;;15.30;74.30;;;;;;5060898;28;20027;-62
2021/05/28 01:51:12;;;;;;;9.57;4.30;;;15.20;74.30;;;;;;5063203;28;20230;-61
2021/05/28 01:53:37;;;;;;;11.77;4.60;;;15.20;74.30;;;;;;5063797;28;20412;-61
2021/05/28 01:56:03;;;;;;;9.10;3.92;;;15.10;74.40;;;;;;5072526;28;20063;-61
2021/05/28 01:58:28;;;;;;;9.82;3.85;;;15.10;74.50;;;;;;5069498;28;20024;-62
2021/05/28 02:00:56;;;;;;;10.82;4.43;;;15.10;74.80;;;;;;5073450;28;20028;-62
2021/05/28 02:03:22;;;;;;;7.70;4.07;;;15.10;74.70;;;;;;5071366;28;20043;-61
2021/05/28 02:05:47;;;;;;;7.07;3.72;;;15.00;74.70;;;;;;5058618;28;20111;-61
2021/05/28 02:08:13;;;;;;;9.40;3.92;;;15.00;74.90;;;;;;5056959;28;20025;-60
2021/05/28 02:10:39;;;;;;;6.10;3.50;;;15.00;75.70;;;;;;5065482;28;20534;-61
2021/05/28 02:13:05;;;;;;;6.45;3.90;;;14.90;74.90;;;;;;5054772;28;20041;-61
2021/05/28 02:15:30;;;;;;;9.27;3.97;;;15.00;75.00;;;;;;5041251;28;20124;-62
2021/05/28 02:17:56;;;;;;;9.00;3.22;;;14.90;75.00;;;;;;5054145;28;20026;-60
2021/05/28 02:20:22;;;;;;;5.97;3.50;;;14.90;75.10;;;;;;5065291;28;20037;-62
2021/05/28 02:22:47;;;;;;;7.28;3.53;;;14.90;75.30;;;;;;5039287;28;20040;-61
2021/05/28 02:25:16;;;;;;;5.05;3.25;;;14.90;75.50;;;;;;5048605;28;20068;-61
2021/05/28 02:27:41;;;;;;;5.22;3.72;;;14.80;75.50;;;;;;5038294;28;20028;-61
2021/05/28 02:30:08;;;;;;;7.75;3.00;;;14.80;75.60;;;;;;5052276;28;20024;-62
2021/05/28 02:32:33;;;;;;;6.68;3.30;;;14.80;75.70;;;;;;5060910;28;20063;-62
2021/05/28 02:34:59;;;;;;;5.60;3.28;;;14.80;75.80;;;;;;5058342;28;20124;-61
2021/05/28 02:37:24;;;;;;;5.50;3.25;;;14.70;75.80;;;;;;5034230;28;20399;-61
2021/05/28 02:39:50;;;;;;;7.68;3.22;;;14.70;75.80;;;;;;5074885;28;20099;-61
2021/05/28 02:42:15;;;;;;;6.47;2.83;;;14.70;75.70;;;;;;5064383;28;20033;-61
2021/05/28 02:44:41;;;;;;;5.88;3.00;;;14.70;75.80;;;;;;5068250;28;20037;-61
2021/05/28 02:47:07;;;;;;;10.07;3.45;;;14.70;75.90;;;;;;5073971;28;20032;-61
2021/05/28 02:49:32;;;;;;;8.75;3.42;;;14.60;75.80;;;;;;5029942;28;20033;-62
2021/05/28 02:51:58;;;;;;;9.05;4.32;;;14.60;75.80;;;;;;5071982;28;20017;-60
2021/05/28 02:54:25;;;;;;;8.77;4.82;;;14.60;75.90;;;;;;5040208;28;20028;-61
2021/05/28 02:56:50;;;;;;;7.30;4.60;;;14.60;75.90;;;;;;5048913;28;20029;-61
2021/05/28 02:59:16;;;;;;;6.78;4.63;;;14.60;75.90;;;;;;5062908;28;20043;-60
2021/05/28 03:01:41;;;;;;;6.32;4.13;;;14.50;75.90;;;;;;5081948;28;20569;-61
2021/05/28 03:04:07;;;;;;;7.50;4.00;;;14.50;75.90;;;;;;5055812;28;20032;-62
2021/05/28 03:06:32;;;;;;;9.25;4.22;;;14.50;76.00;;;;;;5052734;28;20513;-62
2021/05/28 03:08:58;;;;;;;8.45;4.90;;;14.40;75.90;;;;;;5053044;28;20102;-62
2021/05/28 03:11:23;;;;;;;5.93;3.92;;;14.40;76.00;;;;;;5079819;28;20024;-61
2021/05/28 03:13:49;;;;;;;9.00;4.60;;;14.40;76.00;;;;;;5080146;28;20528;-61
2021/05/28 03:16:15;;;;;;;8.05;4.00;;;14.40;76.10;;;;;;5077466;28;20036;-62
2021/05/28 03:18:50;;;;;;;3.78;3.33;;;14.30;76.20;;;;;;5061673;28;20049;-61
2021/05/28 03:21:20;;;;;;;4.93;3.65;;;14.30;76.20;;;;;;5053181;28;20108;-61
2021/05/28 03:23:50;;;;;;;7.00;3.65;;;14.30;76.30;;;;;;5047532;28;20032;-61
2021/05/28 03:26:15;;;;;;;4.68;3.42;;;14.20;76.30;;;;;;5073470;28;20029;-60
2021/05/28 03:28:41;;;;;;;7.50;3.50;;;14.20;76.40;;;;;;5058800;28;20081;-62
2021/05/28 03:31:06;;;;;;;6.63;3.53;;;14.20;76.40;;;;;;5059132;28;20078;-61
2021/05/28 03:33:32;;;;;;;4.53;3.33;;;14.20;76.50;;;;;;5069105;28;20102;-62
2021/05/28 03:35:58;;;;;;;4.47;3.30;;;14.20;76.40;;;;;;5052626;28;20112;-61
2021/05/28 03:38:23;;;;;;;5.20;3.47;;;14.10;76.40;;;;;;5060821;28;20083;-61
2021/05/28 03:40:49;;;;;;;6.45;2.97;;;14.10;76.40;;;;;;5067025;28;20028;-62
2021/05/28 03:43:15;;;;;;;4.65;3.25;;;14.10;76.50;;;;;;5069344;28;20404;-61
2021/05/28 03:45:40;;;;;;;4.82;3.55;;;14.10;76.60;;;;;;5065782;28;20033;-62
2021/05/28 03:48:06;;;;;;;4.72;3.33;;;14.00;76.60;;;;;;5039278;28;20035;-62
2021/05/28 03:50:32;;;;;;;7.10;3.97;;;14.00;76.60;;;;;;5061689;28;20045;-62
2021/05/28 03:52:57;;;;;;;4.47;3.20;;;14.00;76.70;;;;;;5060487;28;20032;-61
2021/05/28 03:55:23;;;;;;;5.40;3.25;;;14.00;76.70;;;;;;5064273;28;20044;-61
2021/05/28 03:57:48;;;;;;;6.05;3.10;;;14.00;76.80;;;;;;5061723;28;20025;-61
2021/05/28 04:00:14;;;;;;;4.65;3.47;;;13.90;76.70;;;;;;5066929;28;20028;-61
2021/05/28 04:02:40;;;;;;;5.57;3.20;;;13.90;76.80;;;;;;5060447;28;20385;-62
2021/05/28 04:05:06;;;;;;;5.25;3.00;;;13.90;76.80;;;;;;5066833;28;20041;-62
2021/05/28 04:07:31;;;;;;;74.85;11.35;;;13.90;77.00;;;;;;5043875;28;20045;-62
2021/05/28 04:09:57;;;;;;;92.53;12.30;;;13.80;77.00;;;;;;5065553;28;20550;-62
2021/05/28 04:12:22;;;;;;;62.83;9.52;;;13.80;77.00;;;;;;5063097;28;20044;-61
2021/05/28 04:14:48;;;;;;;43.97;6.80;;;13.80;77.00;;;;;;5072426;28;20032;-61
2021/05/28 04:17:13;;;;;;;42.35;6.65;;;13.80;77.00;;;;;;5063550;28;20079;-62
2021/05/28 04:19:39;;;;;;;33.35;6.10;;;13.80;77.00;;;;;;5083032;28;20078;-61
2021/05/28 04:22:04;;;;;;;30.55;6.22;;;13.80;77.00;;;;;;5071354;28;20090;-61
2021/05/28 04:24:30;;;;;;;50.55;6.63;;;13.70;77.00;;;;;;5074442;28;20086;-62
2021/05/28 04:26:55;;;;;;;32.65;6.45;;;13.70;77.10;;;;;;5077763;28;20032;-61
2021/05/28 04:29:22;;;;;;;48.53;6.13;;;13.70;77.20;;;;;;5085033;28;20192;-62
2021/05/28 04:31:48;;;;;;;47.90;6.75;;;13.70;77.20;;;;;;5081942;28;20099;-62
2021/05/28 04:34:13;;;;;;;39.67;6.57;;;13.70;77.20;;;;;;5082239;28;20117;-61
2021/05/28 04:36:39;;;;;;;46.17;6.25;;;13.60;77.20;;;;;;5064756;28;20028;-61
2021/05/28 04:39:04;;;;;;;30.55;5.20;;;13.60;77.30;;;;;;5065082;28;20028;-61
2021/05/28 04:41:30;;;;;;;36.55;6.18;;;13.60;77.40;;;;;;5063588;28;20031;-62
2021/05/28 04:43:55;;;;;;;65.68;6.97;;;13.60;77.40;;;;;;5085079;28;20028;-62
2021/05/28 04:46:21;;;;;;;108.03;11.60;;;13.60;77.40;;;;;;5062898;28;20025;-62
2021/05/28 04:48:46;;;;;;;96.68;9.73;;;13.60;77.50;;;;;;5078629;28;20460;-63
2021/05/28 04:51:12;;;;;;;208.73;16.90;;;13.50;77.50;;;;;;5075719;28;20036;-62
2021/05/28 04:53:37;;;;;;;151.15;17.33;;;13.60;77.90;;;;;;5073415;28;20029;-62
2021/05/28 04:56:03;;;;;;;136.18;12.85;;;13.50;78.00;;;;;;5071072;28;20037;-61
2021/05/28 04:58:29;;;;;;;122.38;12.70;;;13.60;78.10;;;;;;5074942;28;20435;-64
2021/05/28 05:00:54;;;;;;;211.70;15.15;;;13.60;78.10;;;;;;5073481;28;20044;-62
2021/05/28 05:03:20;;;;;;;546.13;49.78;;;13.60;78.10;;;;;;5078563;28;20081;-63
2021/05/28 05:05:46;;;;;;;270.77;24.50;;;13.60;78.10;;;;;;5072707;28;20111;-61
2021/05/28 05:08:11;;;;;;;694.10;61.85;;;13.50;78.00;;;;;;5049397;28;20032;-61
2021/05/28 05:10:37;;;;;;;328.77;26.83;;;13.60;78.10;;;;;;5073032;28;20531;-62
2021/05/28 05:13:10;;;;;;;266.17;21.73;;;13.60;78.00;;;;;;5080432;28;20481;-61
2021/05/28 05:15:35;;;;;;;307.65;23.50;;;13.60;77.90;;;;;;5056297;28;20545;-61
2021/05/28 05:18:01;;;;;;;307.80;25.90;;;13.50;77.70;;;;;;5079637;28;20028;-62
2021/05/28 05:20:26;;;;;;;245.35;21.60;;;13.60;77.80;;;;;;5073006;28;20024;-62
2021/05/28 05:22:52;;;;;;;237.75;21.10;;;13.60;77.80;;;;;;5062749;28;20131;-61
2021/05/28 05:25:17;;;;;;;205.75;20.42;;;13.50;77.70;;;;;;5064602;28;20036;-63
2021/05/28 05:27:43;;;;;;;213.35;21.50;;;13.50;77.90;;;;;;5076776;28;20036;-61
2021/05/28 05:30:09;;;;;;;187.70;18.80;;;13.50;77.90;;;;;;5077063;28;20032;-61
2021/05/28 05:32:34;;;;;;;179.85;16.67;;;13.50;77.90;;;;;;5049413;28;20059;-61
2021/05/28 05:35:00;;;;;;;150.50;16.92;;;13.50;78.10;;;;;;5053689;28;20025;-61
2021/05/28 05:37:26;;;;;;;162.25;16.40;;;13.60;78.20;;;;;;5057488;28;20024;-63
2021/05/28 05:39:51;;;;;;;168.43;16.35;;;13.50;78.30;;;;;;5067088;28;20055;-61
2021/05/28 05:42:17;;;;;;;148.95;16.90;;;13.50;78.40;;;;;;5061138;28;20025;-61
2021/05/28 05:44:42;;;;;;;152.10;17.33;;;13.60;78.40;;;;;;5070953;28;20036;-61
2021/05/28 05:47:08;;;;;;;141.50;15.68;;;13.60;78.50;;;;;;5081403;28;20036;-60
2021/05/28 05:49:35;;;;;;;146.65;15.10;;;13.60;78.50;;;;;;5075292;28;20036;-62
2021/05/28 05:52:00;;;;;;;152.60;15.98;;;13.50;78.40;;;;;;5066371;28;20063;-61
2021/05/28 05:54:26;;;;;;;133.27;14.30;;;13.50;78.40;;;;;;5055548;28;20380;-61
2021/05/28 05:56:51;;;;;;;106.50;13.55;;;13.60;78.50;;;;;;5078766;28;20044;-61
2021/05/28 05:59:17;;;;;;;134.27;15.30;;;13.60;78.40;;;;;;5074006;28;20048;-62
2021/05/28 06:01:42;;;;;;;160.65;14.98;;;13.60;78.50;;;;;;5078640;28;20391;-62
2021/05/28 06:04:08;;;;;;;127.55;15.20;;;13.60;78.50;;;;;;5075508;28;20459;-61
2021/05/28 06:06:33;;;;;;;125.50;13.85;;;13.50;78.30;;;;;;5079066;28;20067;-61
2021/05/28 06:08:59;;;;;;;124.80;15.07;;;13.50;78.30;;;;;;5055607;28;20103;-61
2021/05/28 06:11:24;;;;;;;102.03;12.00;;;13.50;78.40;;;;;;5080561;28;20031;-61
2021/05/28 06:13:50;;;;;;;104.05;12.50;;;13.50;78.80;;;;;;5020564;28;20040;-61
2021/05/28 06:16:15;;;;;;;101.28;12.40;;;13.60;79.00;;;;;;5078386;28;20024;-61
2021/05/28 06:18:41;;;;;;;95.90;10.85;;;13.60;79.00;;;;;;5079241;28;20403;-62
2021/05/28 06:21:07;;;;;;;92.38;12.25;;;13.70;79.20;;;;;;5049516;28;20440;-60
2021/05/28 06:23:33;;;;;;;89.97;11.88;;;13.50;79.00;;;;;;5057420;28;20460;-61
2021/05/28 06:25:59;;;;;;;88.28;11.25;;;13.50;79.20;;;;;;5073650;28;20434;-62
2021/05/28 06:28:24;;;;;;;73.25;9.43;;;13.50;79.20;;;;;;5080084;28;20029;-62
2021/05/28 06:30:50;;;;;;;95.57;11.43;;;13.50;79.40;;;;;;5050072;28;20016;-61
2021/05/28 06:33:15;;;;;;;76.40;10.25;;;13.50;79.50;;;;;;5066297;28;20035;-62
2021/05/28 06:35:41;;;;;;;83.75;10.95;;;13.60;79.50;;;;;;5063263;28;20043;-63
2021/05/28 06:38:08;;;;;;;59.55;9.45;;;13.50;79.40;;;;;;5078101;28;20037;-61
2021/05/28 06:40:34;;;;;;;72.20;10.20;;;13.50;79.40;;;;;;5064458;28;20016;-61
2021/05/28 06:43:00;;;;;;;75.93;10.15;;;13.60;79.50;;;;;;5048025;28;20032;-61
2021/05/28 06:45:25;;;;;;;73.00;9.85;;;13.60;79.60;;;;;;5073310;28;20032;-61
2021/05/28 06:47:51;;;;;;;69.97;8.90;;;13.60;79.60;;;;;;5068041;28;20020;-61
2021/05/28 06:50:17;;;;;;;73.18;9.40;;;13.60;79.60;;;;;;5043078;28;20088;-62
2021/05/28 06:52:43;;;;;;;66.80;10.50;;;13.60;79.70;;;;;;5035209;28;20025;-63
2021/05/28 06:55:09;;;;;;;90.43;10.27;;;13.60;80.10;;;;;;5055783;28;20029;-61
2021/05/28 06:57:35;;;;;;;67.25;9.65;;;13.70;80.10;;;;;;5037382;28;20029;-62
2021/05/28 07:00:01;;;;;;;76.30;8.60;;;13.60;79.60;;;;;;5048903;28;20090;-62
2021/05/28 07:02:26;;;;;;;51.17;9.52;;;13.70;79.60;;;;;;5022817;28;20366;-62
2021/05/28 07:04:52;;;;;;;65.43;8.52;;;13.70;79.50;;;;;;5035810;28;20044;-61
2021/05/28 07:07:18;;;;;;;41.30;7.07;;;13.70;79.60;;;;;;5054084;28;20028;-61
2021/05/28 07:09:44;;;;;;;43.38;6.07;;;13.70;79.80;;;;;;5050548;28;20033;-61
2021/05/28 07:12:10;;;;;;;48.25;6.80;;;13.70;80.60;;;;;;5051918;28;20039;-61
2021/05/28 07:14:35;;;;;;;29.88;6.10;;;13.70;81.10;;;;;;5045683;28;20037;-61
2021/05/28 07:17:01;;;;;;;57.95;7.47;;;13.70;81.20;;;;;;5048310;28;20020;-62
2021/05/28 07:19:26;;;;;;;50.67;6.93;;;13.60;81.10;;;;;;5050727;28;20024;-62
2021/05/28 07:21:52;;;;;;;40.15;6.65;;;13.70;80.90;;;;;;5048464;28;20060;-63
2021/05/28 07:24:17;;;;;;;40.78;6.22;;;13.70;81.60;;;;;;5054537;28;20152;-63
2021/05/28 07:26:43;;;;;;;75.28;8.48;;;13.70;81.40;;;;;;5024455;28;20025;-61
2021/05/28 07:29:08;;;;;;;46.92;7.20;;;13.70;81.60;;;;;;5049160;28;20060;-62
2021/05/28 07:31:34;;;;;;;52.67;6.18;;;13.70;81.60;;;;;;5043052;28;20504;-61
2021/05/28 07:33:59;;;;;;;40.38;6.93;;;13.70;81.70;;;;;;5050017;28;20065;-61
2021/05/28 07:36:25;;;;;;;32.78;5.28;;;13.80;81.50;;;;;;5057525;28;20040;-61
2021/05/28 07:38:50;;;;;;;27.88;5.47;;;13.70;81.50;;;;;;5039149;28;20096;-61
2021/05/28 07:41:16;;;;;;;38.58;5.43;;;13.70;81.40;;;;;;5034187;28;20028;-61
2021/05/28 07:43:41;;;;;;;40.08;6.20;;;13.70;81.20;;;;;;5044425;28;20053;-61
2021/05/28 07:46:07;;;;;;;34.80;5.38;;;13.80;81.50;;;;;;5038564;28;20033;-61
2021/05/28 07:48:33;;;;;;;45.40;6.80;;;13.80;81.50;;;;;;5040210;28;20075;-62
2021/05/28 07:50:58;;;;;;;47.17;5.97;;;13.80;81.30;;;;;;5021884;28;20083;-60
2021/05/28 07:53:25;;;;;;;32.75;5.82;;;13.80;80.90;;;;;;5035611;28;20029;-62
2021/05/28 07:55:51;;;;;;;44.00;6.10;;;13.80;80.50;;;;;;5035561;28;20566;-62
2021/05/28 07:58:16;;;;;;;39.97;6.32;;;13.80;80.40;;;;;;5031750;28;20028;-60
2021/05/28 08:00:42;;;;;;;46.33;5.72;;;13.80;80.40;;;;;;5030867;28;20276;-61
2021/05/28 08:03:07;;;;;;;41.42;6.60;;;13.90;80.90;;;;;;5017739;28;20079;-62
2021/05/28 08:05:33;;;;;;;46.92;6.78;;;13.90;80.90;;;;;;5048581;28;20115;-60
2021/05/28 08:07:59;;;;;;;49.65;6.15;;;13.90;80.70;;;;;;5059071;28;20389;-62
2021/05/28 08:10:25;;;;;;;44.25;7.13;;;13.90;81.10;;;;;;5031655;28;20029;-63
2021/05/28 08:12:50;;;;;;;44.08;6.18;;;13.90;80.70;;;;;;5058001;28;20541;-63
2021/05/28 08:15:19;;;;;;;55.15;6.50;;;14.00;81.30;;;;;;5051099;28;20037;-61
2021/05/28 08:17:46;;;;;;;40.33;5.65;;;14.00;81.10;;;;;;5060866;28;20023;-62
2021/05/28 08:20:12;;;;;;;57.00;6.15;;;14.00;81.10;;;;;;5014164;28;20414;-62
2021/05/28 08:22:37;;;;;;;33.47;5.40;;;14.10;81.10;;;;;;5055162;28;20156;-61
2021/05/28 08:25:03;;;;;;;34.33;5.55;;;14.00;81.20;;;;;;5055193;28;20032;-62
2021/05/28 08:27:29;;;;;;;94.93;10.52;;;14.10;81.40;;;;;;5045726;28;20117;-61
2021/05/28 08:29:54;;;;;;;33.90;5.38;;;14.10;81.10;;;;;;5036595;28;20099;-61
2021/05/28 08:32:20;;;;;;;45.05;6.13;;;14.10;80.90;;;;;;5064275;28;20527;-61
2021/05/28 08:34:45;;;;;;;41.03;5.55;;;14.20;81.40;;;;;;5048256;28;20037;-61
2021/05/28 08:37:11;;;;;;;45.63;5.93;;;14.20;81.30;;;;;;5042523;28;20206;-61
2021/05/28 08:39:36;;;;;;;35.83;6.22;;;14.20;81.20;;;;;;5042260;28;20095;-60
2021/05/28 08:42:02;;;;;;;57.38;6.82;;;14.20;81.00;;;;;;5020980;28;20109;-63
2021/05/28 08:44:28;;;;;;;49.63;7.03;;;14.30;81.00;;;;;;5029199;28;20243;-61
2021/05/28 08:46:53;;;;;;;38.15;4.95;;;14.30;81.30;;;;;;5001918;28;20056;-62
2021/05/28 08:49:20;;;;;;;43.38;6.35;;;14.30;81.20;;;;;;5040031;28;20179;-62
2021/05/28 08:51:45;;;;;;;67.90;8.45;;;14.40;81.00;;;;;;5046714;28;20040;-61
2021/05/28 08:54:11;;;;;;;54.17;6.38;;;14.30;80.90;;;;;;5038063;28;20021;-62
2021/05/28 08:56:37;;;;;;;61.38;5.95;;;14.40;81.00;;;;;;5034043;28;20052;-61
2021/05/28 08:59:05;;;;;;;41.42;5.30;;;14.40;81.00;;;;;;5024481;28;20094;-61
2021/05/28 09:01:31;;;;;;;40.75;6.53;;;14.40;81.00;;;;;;5027027;28;20037;-61
2021/05/28 09:03:58;;;;;;;50.50;6.32;;;14.50;80.80;;;;;;5025884;28;20051;-61
2021/05/28 09:06:24;;;;;;;40.45;6.18;;;14.50;80.70;;;;;;5045248;28;20040;-61
2021/05/28 09:08:49;;;;;;;51.78;7.38;;;14.60;80.70;;;;;;5019907;28;20028;-61
2021/05/28 09:11:18;;;;;;;72.82;8.70;;;14.60;80.60;;;;;;5026865;28;20385;-61
2021/05/28 09:13:52;;;;;;;37.17;7.07;;;14.60;80.40;;;;;;5021262;28;20498;-62
2021/05/28 09:16:27;;;;;;;41.42;5.75;;;14.60;80.20;;;;;;5035012;28;20033;-60
2021/05/28 09:18:53;;;;;;;35.85;6.80;;;14.70;80.10;;;;;;5046361;28;20048;-62
2021/05/28 09:21:23;;;;;;;44.47;6.25;;;14.70;79.80;;;;;;5021138;28;20072;-61
2021/05/28 09:23:53;;;;;;;40.83;5.68;;;14.70;79.40;;;;;;5046358;28;20079;-61
2021/05/28 09:26:18;;;;;;;37.70;6.07;;;14.70;79.20;;;;;;5048829;28;20040;-60
2021/05/28 09:28:45;;;;;;;48.10;5.60;;;14.70;79.10;;;;;;5048748;28;20041;-61
2021/05/28 09:31:22;;;;;;;52.78;6.60;;;14.80;79.10;;;;;;5007078;28;20468;-61
2021/05/28 09:33:49;;;;;;;49.72;6.22;;;14.80;78.90;;;;;;5045705;28;20025;-62
2021/05/28 09:36:16;;;;;;;51.90;6.10;;;14.90;78.80;;;;;;5052351;28;20028;-62
2021/05/28 09:39:20;;;;;;;37.72;5.22;;;14.90;78.60;;;;;;5056310;28;20021;-61
2021/05/28 09:41:51;;;;;;;37.38;5.78;;;15.00;78.20;;;;;;5051769;28;20137;-62
2021/05/28 09:44:26;;;;;;;58.35;5.60;;;15.10;77.90;;;;;;5058512;28;20029;-61
2021/05/28 09:47:13;;;;;;;44.20;6.13;;;15.10;77.80;;;;;;5049770;28;20033;-62
2021/05/28 09:49:48;;;;;;;39.75;5.55;;;15.10;77.50;;;;;;5034452;28;20139;-62
2021/05/28 09:52:15;;;;;;;52.45;5.00;;;15.20;77.20;;;;;;5022031;28;20165;-62
2021/05/28 09:54:53;;;;;;;47.78;6.43;;;15.20;77.00;;;;;;5033615;28;20068;-61
2021/05/28 09:57:35;;;;;;;48.97;6.82;;;15.20;76.60;;;;;;5026472;28;20025;-63
2021/05/28 10:00:03;;;;;;;71.93;7.53;;;15.30;76.30;;;;;;5046652;28;20021;-61
2021/05/28 10:02:33;;;;;;;71.03;7.63;;;15.30;76.10;;;;;;5052600;28;20024;-61
2021/05/28 10:04:58;;;;;;;50.90;6.28;;;15.40;75.90;;;;;;5061580;28;20459;-62
2021/05/28 10:07:25;;;;;;;43.40;7.35;;;15.40;75.60;;;;;;5040929;28;20057;-62
2021/05/28 10:09:55;;;;;;;54.03;6.20;;;15.50;74.90;;;;;;5048812;28;20028;-61
2021/05/28 10:12:21;;;;;;;56.67;5.85;;;15.50;74.30;;;;;;5029543;28;20079;-63
2021/05/28 10:14:49;;;;;;;50.97;5.53;;;15.60;73.90;;;;;;5046931;28;20107;-61
2021/05/28 10:17:14;;;;;;;46.05;5.45;;;15.60;73.60;;;;;;5045908;28;20112;-61
2021/05/28 10:19:40;;;;;;;47.35;5.35;;;15.70;73.60;;;;;;5035774;28;20120;-62
2021/05/28 10:22:06;;;;;;;41.55;5.05;;;15.70;72.80;;;;;;5023018;28;20088;-61
2021/05/28 10:24:31;;;;;;;38.65;3.70;;;15.70;72.60;;;;;;5031820;28;20028;-62
2021/05/28 10:26:57;;;;;;;42.42;4.97;;;15.70;71.90;;;;;;5029921;28;20032;-62
2021/05/28 10:29:26;;;;;;;61.67;6.18;;;15.80;72.00;;;;;;5046339;28;20030;-61
2021/05/28 10:31:55;;;;;;;41.85;5.03;;;15.80;71.80;;;;;;5020619;28;20691;-61
2021/05/28 10:34:22;;;;;;;48.05;6.13;;;15.90;71.70;;;;;;5014378;28;20035;-62
2021/05/28 10:36:47;;;;;;;37.30;6.10;;;15.90;71.40;;;;;;5043698;28;20087;-61
2021/05/28 10:39:14;;;;;;;32.28;4.15;;;16.00;71.10;;;;;;5039059;28;20021;-61
2021/05/28 10:41:47;;;;;;;36.28;5.90;;;16.10;70.90;;;;;;5012886;28;20100;-62
2021/05/28 10:44:14;;;;;;;37.50;5.00;;;16.10;69.90;;;;;;5047602;28;20029;-62
2021/05/28 10:47:13;;;;;;;33.33;5.03;;;16.20;69.80;;;;;;5005646;28;20034;-62
2021/05/28 10:49:45;;;;;;;44.20;5.40;;;16.30;69.50;;;;;;5037327;28;20064;-63
2021/05/28 10:52:16;;;;;;;36.50;4.47;;;16.40;69.20;;;;;;5031058;28;20025;-62
2021/05/28 10:55:14;;;;;;;42.67;4.63;;;16.40;68.70;;;;;;5025675;28;20021;-63
2021/05/28 10:57:58;;;;;;;42.38;4.93;;;16.50;68.30;;;;;;5034004;28;20489;-61
2021/05/28 11:00:30;;;;;;;31.30;4.00;;;16.60;67.90;;;;;;5050610;28;20024;-60
2021/05/28 11:03:00;;;;;;;35.42;5.03;;;16.70;67.20;;;;;;5050157;28;20041;-61
2021/05/28 11:05:40;;;;;;;31.98;4.40;;;16.70;67.20;;;;;;5044150;28;20062;-62
2021/05/28 11:08:35;;;;;;;39.72;4.80;;;16.90;67.10;;;;;;5032433;28;20459;-62
2021/05/28 11:11:01;;;;;;;30.50;4.05;;;17.00;65.80;;;;;;5041652;28;20041;-62
2021/05/28 11:13:26;;;;;;;24.30;3.95;;;17.10;65.90;;;;;;5050554;28;20112;-61
2021/05/28 11:15:56;;;;;;;20.88;2.92;;;17.20;66.00;;;;;;5049327;28;20029;-61
2021/05/28 11:18:31;;;;;;;26.63;4.43;;;17.30;65.10;;;;;;5050077;28;20609;-60
2021/05/28 11:21:16;;;;;;;26.90;3.65;;;17.40;65.30;;;;;;5031435;28;20508;-61
2021/05/28 11:23:43;;;;;;;21.00;3.70;;;17.60;64.80;;;;;;5032604;28;20047;-62
2021/05/28 11:26:14;;;;;;;30.05;4.30;;;17.70;64.70;;;;;;5040375;28;20025;-61
2021/05/28 11:28:54;;;;;;;26.75;3.72;;;17.80;64.70;;;;;;5040864;28;20056;-60
2021/05/28 11:31:20;;;;;;;44.47;4.55;;;17.80;65.30;;;;;;5055173;28;20044;-61
2021/05/28 11:33:46;;;;;;;43.92;4.05;;;18.00;64.70;;;;;;5032279;28;20086;-61
2021/05/28 11:36:26;;;;;;;32.67;4.15;;;18.00;64.70;;;;;;5007641;28;20029;-62
2021/05/28 11:38:59;;;;;;;46.85;4.65;;;18.10;64.20;;;;;;5056284;28;20258;-61
2021/05/28 11:41:47;;;;;;;14.07;2.38;;;18.20;64.10;;;;;;5034289;28;20420;-62
2021/05/28 11:44:14;;;;;;;28.25;3.42;;;18.30;63.40;;;;;;5048633;28;20289;-62
2021/05/28 11:46:41;;;;;;;33.42;4.05;;;18.40;63.50;;;;;;5038503;28;20038;-61
2021/05/28 11:49:07;;;;;;;32.72;3.88;;;18.50;63.30;;;;;;5025329;28;20036;-61
2021/05/28 11:51:33;;;;;;;29.10;3.97;;;18.60;63.20;;;;;;5051244;28;20024;-61
2021/05/28 11:53:58;;;;;;;36.40;3.92;;;18.70;63.20;;;;;;5055024;28;20591;-61
2021/05/28 11:56:24;;;;;;;27.35;3.53;;;18.80;62.30;;;;;;5036248;28;20029;-61
2021/05/28 11:58:51;;;;;;;23.52;4.05;;;18.90;62.30;;;;;;5010853;28;20499;-62
2021/05/28 12:01:16;;;;;;;35.22;4.50;;;19.00;61.80;;;;;;5045508;28;20051;-62
2021/05/28 12:03:42;;;;;;;45.22;4.53;;;19.10;61.60;;;;;;5054402;28;20045;-61
2021/05/28 12:06:07;;;;;;;34.20;3.95;;;19.10;61.40;;;;;;5037695;28;20025;-62
2021/05/28 12:08:34;;;;;;;32.00;4.50;;;19.20;61.30;;;;;;5056370;28;20036;-62
2021/05/28 12:11:03;;;;;;;28.38;4.15;;;19.30;61.90;;;;;;5052915;28;20055;-61
2021/05/28 12:13:31;;;;;;;23.40;2.78;;;19.30;60.30;;;;;;5050633;28;20028;-61
2021/05/28 12:16:02;;;;;;;54.00;6.45;;;19.40;59.40;;;;;;5043779;28;20495;-62
2021/05/28 12:18:27;;;;;;;44.28;4.20;;;19.50;59.80;;;;;;5027996;28;20028;-60
2021/05/28 12:21:03;;;;;;;37.88;4.45;;;19.50;59.60;;;;;;5044064;28;20021;-63
2021/05/28 12:23:29;;;;;;;43.42;4.13;;;19.60;59.30;;;;;;5030461;28;20033;-61
2021/05/28 12:25:59;;;;;;;40.60;4.65;;;19.70;58.90;;;;;;5052530;28;20642;-61
2021/05/28 12:28:33;;;;;;;57.72;5.90;;;19.80;59.30;;;;;;5030622;28;20032;-62
2021/05/28 12:31:02;;;;;;;50.63;5.20;;;19.90;59.00;;;;;;5033616;28;20255;-61
2021/05/28 12:33:30;;;;;;;56.83;5.90;;;20.00;58.90;;;;;;5049886;28;20063;-60
2021/05/28 12:35:58;;;;;;;44.85;4.90;;;20.00;58.50;;;;;;5033823;28;20506;-62